Time;durP1;ratioP1;P1;durP2;ratioP2;P2;SDS_P1;SDS_P2;PMS_P1;PMS_P2;Temp;Humidity;BMP_temperature;BMP_pressure;BME280_temperature;BME280_humidity;BME280_pressure;Samples;Min_cycle;Max_cycle;Signal;HPM_P1;HPM_P2
2023/02/15 00:01:07;;;;;;;3.00;1.40;;;;;;;0.65;100.00;101208.23;103202;1293;60603;-76
2023/02/15 00:03:32;;;;;;;2.40;1.10;;;;;;;0.66;100.00;101210.45;103470;1286;72905;-76
2023/02/15 00:05:58;;;;;;;2.80;1.30;;;;;;;0.67;100.00;101205.89;103428;1292;61198;-77
2023/02/15 00:08:23;;;;;;;3.40;1.20;;;;;;;0.66;100.00;101210.16;103416;1287;60319;-77
2023/02/15 00:10:49;;;;;;;3.40;1.60;;;;;;;0.64;100.00;101211.04;103450;1292;60381;-77
2023/02/15 00:13:14;;;;;;;2.30;1.30;;;;;;;0.62;100.00;101211.25;103505;1286;60404;-76
2023/02/15 00:15:40;;;;;;;2.80;1.10;;;;;;;0.62;100.00;101210.83;103420;1289;60421;-77
2023/02/15 00:18:05;;;;;;;2.60;1.10;;;;;;;0.61;100.00;101215.38;103354;1286;60379;-76
2023/02/15 00:20:31;;;;;;;3.10;1.20;;;;;;;0.60;100.00;101214.71;103461;1289;60402;-76
2023/02/15 00:22:56;;;;;;;4.00;1.70;;;;;;;0.60;100.00;101216.30;103473;1289;60366;-77
2023/02/15 00:25:22;;;;;;;13.00;1.60;;;;;;;0.61;100.00;101217.94;103522;1285;60382;-76
2023/02/15 00:27:47;;;;;;;6.30;1.50;;;;;;;0.63;100.00;101217.05;103564;1286;60792;-76
2023/02/15 00:30:13;;;;;;;2.80;1.50;;;;;;;0.63;100.00;101216.64;103527;1286;60363;-76
2023/02/15 00:32:38;;;;;;;2.80;1.60;;;;;;;0.65;100.00;101217.66;103138;1292;60386;-76
2023/02/15 00:35:04;;;;;;;6.10;1.50;;;;;;;0.66;100.00;101218.97;103424;1286;60728;-76
2023/02/15 00:37:30;;;;;;;6.20;1.70;;;;;;;0.67;100.00;101222.73;103527;1289;60397;-76
2023/02/15 00:39:55;;;;;;;3.90;1.50;;;;;;;0.68;100.00;101225.10;103565;1289;60405;-76
2023/02/15 00:42:21;;;;;;;3.20;1.50;;;;;;;0.70;100.00;101223.34;103501;1289;60450;-76
2023/02/15 00:44:46;;;;;;;1.70;1.30;;;;;;;0.70;100.00;101217.81;103242;1286;60629;-77
2023/02/15 00:47:11;;;;;;;4.60;1.90;;;;;;;0.71;100.00;101217.04;103428;1290;60411;-76
2023/02/15 00:49:37;;;;;;;3.80;1.30;;;;;;;0.71;100.00;101222.68;103439;1287;60418;-77
2023/02/15 00:52:02;;;;;;;7.70;1.70;;;;;;;0.72;100.00;101225.72;103446;1286;60347;-76
2023/02/15 00:54:28;;;;;;;3.80;1.20;;;;;;;0.73;100.00;101226.99;103427;1286;60414;-76
2023/02/15 00:56:53;;;;;;;3.70;1.70;;;;;;;0.73;100.00;101224.38;103701;1286;60340;-76
2023/02/15 00:59:19;;;;;;;4.00;1.30;;;;;;;0.73;100.00;101223.10;103698;1289;60472;-76
2023/02/15 01:01:44;;;;;;;3.70;1.70;;;;;;;0.74;100.00;101226.17;103474;1289;74878;-77
2023/02/15 01:04:10;;;;;;;4.20;1.40;;;;;;;0.75;100.00;101226.30;103539;1289;60415;-76
2023/02/15 01:09:57;;;;;;;2.30;1.20;;;;;;;0.75;100.00;101222.05;103437;1286;60290;-76
2023/02/15 01:12:23;;;;;;;4.00;1.30;;;;;;;0.76;100.00;101221.90;103370;1291;60455;-76
2023/02/15 01:14:48;;;;;;;4.40;1.80;;;;;;;0.76;100.00;101225.11;103373;1286;60425;-76
2023/02/15 01:17:14;;;;;;;7.60;1.70;;;;;;;0.77;100.00;101228.00;103633;1289;60424;-76
2023/02/15 01:19:39;;;;;;;2.80;1.40;;;;;;;0.78;100.00;101230.10;103656;1286;60408;-76
2023/02/15 01:22:05;;;;;;;4.80;1.40;;;;;;;0.80;100.00;101229.60;103546;1289;60866;-76
2023/02/15 01:24:31;;;;;;;3.50;1.50;;;;;;;0.80;100.00;101232.94;103531;1286;60436;-76
2023/02/15 01:26:56;;;;;;;3.90;1.50;;;;;;;0.80;100.00;101233.64;103425;1289;60402;-77
2023/02/15 01:29:22;;;;;;;3.80;1.60;;;;;;;0.81;100.00;101233.14;103610;1289;60472;-76
2023/02/15 01:31:47;;;;;;;3.60;1.50;;;;;;;0.81;100.00;101229.81;103288;1290;60593;-77
2023/02/15 01:37:35;;;;;;;4.00;1.50;;;;;;;0.80;100.00;101232.59;103507;1289;74115;-76
2023/02/15 01:40:02;;;;;;;3.10;1.30;;;;;;;0.78;100.00;101231.86;103477;1286;60348;-76
2023/02/15 01:42:29;;;;;;;3.70;1.20;;;;;;;0.79;100.00;101236.76;103482;1286;60396;-76
2023/02/15 01:48:25;;;;;;;1.70;1.00;;;;;;;0.78;100.00;101240.79;103567;1286;74936;-76
2023/02/15 01:54:35;;;;;;;3.30;1.40;;;;;;;0.74;100.00;101239.66;103591;1286;60335;-77
2023/02/15 01:57:10;;;;;;;1.80;1.30;;;;;;;0.73;100.00;101242.02;103863;1285;61571;-77
2023/02/15 01:59:39;;;;;;;3.30;1.10;;;;;;;0.72;100.00;101247.60;103523;1286;73310;-77
2023/02/15 02:02:07;;;;;;;2.50;1.20;;;;;;;0.73;100.00;101250.51;103214;1286;73413;-77
2023/02/15 02:04:41;;;;;;;3.60;1.40;;;;;;;0.72;100.00;101254.53;103216;1290;73175;-77
2023/02/15 02:07:09;;;;;;;2.80;1.30;;;;;;;0.71;100.00;101257.35;103470;1287;61330;-77
2023/02/15 02:09:36;;;;;;;3.20;1.40;;;;;;;0.69;100.00;101260.32;103754;1289;61466;-77
2023/02/15 02:18:31;;;;;;;2.90;1.30;;;;;;;0.72;100.00;101258.27;102801;1289;601638;-78
2023/02/15 02:21:21;;;;;;;3.60;1.60;;;;;;;0.68;100.00;101260.30;103111;1292;62624;-77
2023/02/15 02:23:58;;;;;;;2.60;1.10;;;;;;;0.67;100.00;101260.98;103181;1290;61601;-76
2023/02/15 02:26:47;;;;;;;3.00;1.30;;;;;;;0.65;100.00;101261.05;103242;1291;73373;-77
2023/02/15 02:29:41;;;;;;;3.70;1.20;;;;;;;0.62;100.00;101261.38;103250;1288;74561;-76
2023/02/15 02:35:49;;;;;;;4.30;1.60;;;;;;;0.57;100.00;101267.38;103447;1291;60350;-77
2023/02/15 02:38:30;;;;;;;3.70;1.50;;;;;;;0.56;100.00;101271.11;103431;1291;61490;-76
2023/02/15 02:41:28;;;;;;;3.00;1.30;;;;;;;0.56;100.00;101271.89;102725;1295;601091;-76
2023/02/15 02:44:18;;;;;;;2.90;1.40;;;;;;;0.53;100.00;101270.39;103048;1298;60592;-76
2023/02/15 02:47:16;;;;;;;3.70;1.20;;;;;;;0.52;100.00;101269.98;102872;1292;60563;-77
2023/02/15 02:49:43;;;;;;;2.30;1.30;;;;;;;0.51;100.00;101279.27;102329;1301;73316;-77
2023/02/15 02:52:44;;;;;;;3.80;1.60;;;;;;;0.50;100.00;101278.13;102390;1298;74682;-76
2023/02/15 02:55:34;;;;;;;2.50;1.20;;;;;;;0.47;100.00;101282.56;102663;1295;176434;-77
2023/02/15 02:58:15;;;;;;;3.50;1.60;;;;;;;0.47;100.00;101281.64;102510;1298;62495;-77
2023/02/15 03:00:53;;;;;;;3.80;1.60;;;;;;;0.45;100.00;101285.23;102495;1296;60487;-77
2023/02/15 03:03:30;;;;;;;2.90;1.50;;;;;;;0.46;100.00;101280.88;102971;1298;72504;-76
2023/02/15 03:06:00;;;;;;;3.10;1.40;;;;;;;0.45;100.00;101279.23;102788;1295;74831;-77
2023/02/15 03:08:32;;;;;;;3.60;1.20;;;;;;;0.45;100.00;101281.52;102672;1295;73886;-76
2023/02/15 03:11:01;;;;;;;3.30;1.60;;;;;;;0.44;100.00;101278.39;102561;1295;62429;-76
2023/02/15 03:13:28;;;;;;;2.90;1.40;;;;;;;0.44;100.00;101283.34;102729;1296;61432;-76
2023/02/15 03:19:00;;;;;;;6.40;1.60;;;;;;;0.42;100.00;101284.98;102776;1297;75750;-77
2023/02/15 03:21:34;;;;;;;3.80;1.40;;;;;;;0.44;100.00;101285.63;102444;1302;72411;-76
2023/02/15 03:24:13;;;;;;;2.30;1.30;;;;;;;0.45;100.00;101283.94;102885;1297;62272;-77
2023/02/15 03:26:42;;;;;;;3.60;1.30;;;;;;;0.44;100.00;101284.77;103053;1287;60478;-77
2023/02/15 03:29:10;;;;;;;2.70;1.30;;;;;;;0.43;100.00;101285.57;103408;1289;72867;-77
2023/02/15 03:31:40;;;;;;;2.90;1.50;;;;;;;0.43;100.00;101288.25;103533;1292;74781;-77
2023/02/15 03:34:11;;;;;;;5.00;1.30;;;;;;;0.42;100.00;101290.12;103364;1287;72926;-77
2023/02/15 03:36:45;;;;;;;2.10;1.20;;;;;;;0.42;100.00;101290.55;103262;1286;61260;-77
2023/02/15 03:39:26;;;;;;;3.00;1.50;;;;;;;0.41;100.00;101293.47;103343;1286;61927;-77
2023/02/15 03:42:04;;;;;;;5.40;1.30;;;;;;;0.41;100.00;101294.04;103385;1286;72716;-77
2023/02/15 03:44:32;;;;;;;3.70;1.60;;;;;;;0.39;100.00;101290.84;103065;1295;74945;-77
2023/02/15 03:47:13;;;;;;;2.40;1.40;;;;;;;0.38;100.00;101291.71;103255;1291;74197;-77
2023/02/15 03:49:44;;;;;;;3.40;1.50;;;;;;;0.38;100.00;101295.22;103331;1291;62303;-77
2023/02/15 03:52:11;;;;;;;2.60;1.40;;;;;;;0.37;100.00;101297.77;103247;1290;60229;-77
2023/02/15 03:54:45;;;;;;;2.00;1.20;;;;;;;0.37;100.00;101297.45;103169;1291;74443;-77
2023/02/15 04:03:20;;;;;;;5.00;1.70;;;;;;;0.38;100.00;101303.64;103425;1289;60409;-76
2023/02/15 04:05:45;;;;;;;3.10;1.30;;;;;;;0.38;100.00;101308.80;103335;1291;60386;-77
2023/02/15 04:08:12;;;;;;;2.50;1.40;;;;;;;0.38;100.00;101315.04;103351;1286;60840;-77
2023/02/15 04:10:54;;;;;;;4.60;1.90;;;;;;;0.38;100.00;101318.05;103111;1291;60471;-76
2023/02/15 04:13:21;;;;;;;1.90;1.30;;;;;;;0.38;100.00;101318.84;103440;1289;73750;-77
2023/02/15 04:16:05;;;;;;;2.70;1.30;;;;;;;0.38;100.00;101319.61;102935;1287;61464;-76
2023/02/15 04:27:00;;;;;;;2.60;1.30;;;;;;;0.36;100.00;101325.08;103538;1292;71341;-76
2023/02/15 04:29:27;;;;;;;2.40;1.40;;;;;;;0.36;100.00;101327.61;103223;1292;61617;-76
2023/02/15 04:31:54;;;;;;;2.80;1.40;;;;;;;0.37;100.00;101328.77;103260;1289;60713;-77
2023/02/15 04:34:20;;;;;;;2.80;1.50;;;;;;;0.37;100.00;101334.69;103456;1286;74424;-76
2023/02/15 04:36:45;;;;;;;2.40;1.50;;;;;;;0.36;100.00;101335.92;103447;1292;60937;-76
2023/02/15 04:39:14;;;;;;;5.20;1.30;;;;;;;0.37;100.00;101346.79;103216;1286;60386;-76
2023/02/15 04:41:40;;;;;;;2.20;1.30;;;;;;;0.36;100.00;101351.95;103316;1288;60398;-77
2023/02/15 04:44:05;;;;;;;3.20;1.60;;;;;;;0.37;100.00;101349.60;103358;1292;60395;-76
2023/02/15 04:46:31;;;;;;;2.20;1.50;;;;;;;0.37;100.00;101353.46;103368;1292;60462;-76
2023/02/15 04:48:57;;;;;;;3.10;1.40;;;;;;;0.36;100.00;101359.38;103155;1295;60407;-76
2023/02/15 04:51:22;;;;;;;1.90;1.20;;;;;;;0.36;100.00;101361.01;103404;1289;60785;-76
2023/02/15 04:53:48;;;;;;;2.70;1.30;;;;;;;0.37;100.00;101369.42;103445;1290;60392;-77
2023/02/15 04:56:13;;;;;;;3.00;1.60;;;;;;;0.37;100.00;101369.02;103377;1288;60424;-77
2023/02/15 04:58:42;;;;;;;2.30;1.20;;;;;;;0.38;100.00;101372.61;103405;1289;60338;-77
2023/02/15 05:04:30;;;;;;;3.50;1.50;;;;;;;0.37;100.00;101375.69;103485;1291;60350;-77
2023/02/15 05:06:55;;;;;;;2.80;1.30;;;;;;;0.38;100.00;101377.44;103229;1292;60418;-77
2023/02/15 05:09:21;;;;;;;2.10;1.10;;;;;;;0.39;100.00;101381.48;103343;1285;60411;-77
2023/02/15 05:11:46;;;;;;;3.10;1.40;;;;;;;0.41;100.00;101379.54;102853;1292;60481;-77
2023/02/15 05:14:12;;;;;;;3.40;1.20;;;;;;;0.42;100.00;101383.07;103489;1285;60395;-77
2023/02/15 05:20:00;;;;;;;2.70;1.40;;;;;;;0.46;100.00;101389.02;103447;1285;71665;-77
2023/02/15 05:22:25;;;;;;;2.40;1.10;;;;;;;0.47;100.00;101392.30;103449;1289;60460;-77
2023/02/15 05:30:19;;;;;;;2.40;1.20;;;;;;;0.52;100.00;101393.83;103237;1288;60342;-77
2023/02/15 05:32:45;;;;;;;4.70;1.70;;;;;;;0.54;100.00;101387.11;103428;1289;60424;-77
2023/02/15 05:35:17;;;;;;;2.80;1.40;;;;;;;0.56;100.00;101391.65;103513;1288;60402;-77
2023/02/15 05:37:42;;;;;;;3.10;1.30;;;;;;;0.57;100.00;101396.42;103394;1286;73847;-77
2023/02/15 05:40:08;;;;;;;3.10;1.30;;;;;;;0.59;100.00;101395.88;103011;1292;60567;-78
2023/02/15 05:42:34;;;;;;;3.80;1.40;;;;;;;0.60;100.00;101397.93;103459;1289;60375;-77
2023/02/15 05:44:59;;;;;;;2.60;1.20;;;;;;;0.62;100.00;101398.92;103434;1286;60327;-78
2023/02/15 05:47:25;;;;;;;3.30;1.30;;;;;;;0.63;100.00;101396.09;102873;1286;60930;-78
2023/02/15 05:49:50;;;;;;;2.40;1.10;;;;;;;0.66;100.00;101398.59;103421;1289;61842;-78
2023/02/15 05:52:16;;;;;;;4.70;1.70;;;;;;;0.70;100.00;101397.14;103534;1288;60465;-78
2023/02/15 05:54:42;;;;;;;2.40;1.30;;;;;;;0.72;100.00;101403.64;103431;1288;60405;-78
2023/02/15 05:57:07;;;;;;;3.00;1.50;;;;;;;0.74;100.00;101407.48;103347;1292;60456;-77
2023/02/15 05:59:33;;;;;;;2.40;1.00;;;;;;;0.75;100.00;101411.70;103423;1289;60390;-77
2023/02/15 06:01:58;;;;;;;2.10;1.20;;;;;;;0.78;100.00;101407.34;103366;1288;60322;-77
2023/02/15 06:04:24;;;;;;;2.50;1.10;;;;;;;0.82;100.00;101409.48;103545;1288;60757;-78
2023/02/15 06:06:49;;;;;;;2.10;1.00;;;;;;;0.85;100.00;101410.89;102978;1285;60421;-78
2023/02/15 06:09:17;;;;;;;1.60;1.00;;;;;;;0.89;100.00;101413.15;103319;1292;60395;-78
2023/02/15 06:11:44;;;;;;;2.80;1.10;;;;;;;0.92;100.00;101414.05;103416;1288;60391;-78
2023/02/15 06:14:10;;;;;;;2.00;1.20;;;;;;;0.95;100.00;101419.61;103503;1289;60419;-77
2023/02/15 06:16:36;;;;;;;2.10;1.20;;;;;;;0.96;100.00;101416.48;103444;1288;60344;-77
2023/02/15 06:19:02;;;;;;;1.30;0.90;;;;;;;0.99;100.00;101416.27;103539;1286;60393;-77
2023/02/15 06:21:28;;;;;;;2.40;1.20;;;;;;;1.02;100.00;101420.73;103563;1286;60504;-77
2023/02/15 06:23:54;;;;;;;2.10;1.00;;;;;;;1.07;100.00;101426.52;103349;1292;60398;-78
2023/02/15 06:26:20;;;;;;;1.80;0.90;;;;;;;1.09;100.00;101428.00;103320;1289;60430;-77
2023/02/15 06:28:45;;;;;;;3.80;1.00;;;;;;;1.16;100.00;101432.77;103423;1289;74772;-78
2023/02/15 06:31:11;;;;;;;2.60;1.00;;;;;;;1.20;100.00;101429.52;103272;1288;60382;-76
2023/02/15 06:33:36;;;;;;;2.60;1.10;;;;;;;1.25;100.00;101428.62;103250;1288;60334;-76
2023/02/15 06:36:03;;;;;;;1.50;0.80;;;;;;;1.31;100.00;101431.52;103670;1288;60494;-77
2023/02/15 06:38:29;;;;;;;2.30;1.20;;;;;;;1.37;100.00;101432.05;103583;1286;60344;-76
2023/02/15 06:40:55;;;;;;;2.10;0.80;;;;;;;1.41;100.00;101431.38;103355;1292;60389;-76
2023/02/15 06:43:20;;;;;;;1.90;0.90;;;;;;;1.44;100.00;101433.29;103406;1286;60425;-76
2023/02/15 06:45:46;;;;;;;2.70;1.00;;;;;;;1.48;100.00;101434.45;103454;1286;60582;-77
2023/02/15 06:48:11;;;;;;;2.80;1.20;;;;;;;1.54;100.00;101437.34;103473;1288;60421;-76
2023/02/15 06:50:37;;;;;;;1.40;0.90;;;;;;;1.59;100.00;101435.24;103662;1285;60392;-76
2023/02/15 06:53:02;;;;;;;1.70;1.00;;;;;;;1.62;100.00;101431.77;103523;1288;60412;-76
2023/02/15 06:55:28;;;;;;;3.00;0.80;;;;;;;1.64;100.00;101430.82;103453;1292;60578;-76
2023/02/15 06:57:54;;;;;;;2.10;0.90;;;;;;;1.65;100.00;101431.94;103378;1288;73470;-77
2023/02/15 07:00:21;;;;;;;1.00;0.70;;;;;;;1.71;100.00;101432.31;103360;1292;60725;-77
2023/02/15 07:02:47;;;;;;;1.30;0.70;;;;;;;1.76;100.00;101432.60;103336;1292;73752;-76
2023/02/15 07:05:13;;;;;;;1.60;0.80;;;;;;;1.76;100.00;101430.14;103653;1289;60607;-77
2023/02/15 07:07:38;;;;;;;4.50;1.10;;;;;;;1.79;100.00;101429.27;103434;1288;60581;-77
2023/02/15 07:10:05;;;;;;;2.80;1.10;;;;;;;1.84;100.00;101428.83;103518;1287;61014;-77
2023/02/15 07:12:44;;;;;;;2.60;1.00;;;;;;;1.84;100.00;101431.90;103444;1288;60456;-77
2023/02/15 07:22:18;;;;;;;2.20;1.00;;;;;;;2.02;100.00;101433.47;102949;1295;62625;-78
2023/02/15 07:24:43;;;;;;;1.80;1.10;;;;;;;2.03;100.00;101435.54;102607;1298;60873;-78
2023/02/15 07:30:31;;;;;;;1.80;0.90;;;;;;;1.96;100.00;101437.29;102823;1295;72265;-79
2023/02/15 07:36:00;;;;;;;2.50;1.00;;;;;;;2.03;100.00;101439.19;102927;1288;60620;-77
2023/02/15 07:38:27;;;;;;;;;;;;;;;2.07;100.00;101444.73;102852;1289;60403;-76
2023/02/15 07:41:04;;;;;;;4.30;1.40;;;;;;;2.07;100.00;101444.84;102933;1288;72956;-76
2023/02/15 07:43:33;;;;;;;2.30;1.00;;;;;;;2.06;100.00;101445.86;103083;1289;72568;-76
2023/02/15 07:46:00;;;;;;;3.40;1.30;;;;;;;2.11;100.00;101447.92;103398;1291;72961;-76
2023/02/15 07:48:26;;;;;;;1.80;0.70;;;;;;;2.18;100.00;101449.08;103325;1288;62348;-76
2023/02/15 07:50:52;;;;;;;2.10;1.10;;;;;;;2.19;100.00;101452.77;103391;1289;60273;-76
2023/02/15 07:53:18;;;;;;;3.90;1.20;;;;;;;2.19;100.00;101451.66;103194;1290;60411;-76
2023/02/15 07:55:44;;;;;;;3.60;1.30;;;;;;;2.19;100.00;101453.91;103275;1286;60792;-76
2023/02/15 07:58:09;;;;;;;6.10;1.60;;;;;;;2.19;100.00;101452.95;103077;1302;61053;-76
2023/02/15 08:00:56;;;;;;;2.00;1.10;;;;;;;2.22;100.00;101456.88;103168;1286;60395;-76
2023/02/15 08:03:26;;;;;;;3.50;1.30;;;;;;;2.24;100.00;101460.33;103153;1292;72939;-76
2023/02/15 08:05:57;;;;;;;3.40;1.60;;;;;;;2.29;100.00;101458.59;103376;1286;74754;-76
2023/02/15 08:08:32;;;;;;;4.80;1.20;;;;;;;2.29;100.00;101462.93;103183;1290;73585;-76
2023/02/15 08:13:54;;;;;;;2.90;1.20;;;;;;;2.28;100.00;101463.30;103461;1289;60351;-76
2023/02/15 08:16:38;;;;;;;2.60;0.90;;;;;;;2.31;100.00;101462.27;103106;1294;72932;-76
2023/02/15 08:19:09;;;;;;;3.40;1.50;;;;;;;2.34;100.00;101457.56;103209;1295;73564;-76
2023/02/15 08:21:38;;;;;;;2.00;0.80;;;;;;;2.37;100.00;101461.36;103116;1286;71148;-76
2023/02/15 08:24:05;;;;;;;2.60;1.40;;;;;;;2.45;100.00;101462.63;103383;1291;62824;-77
2023/02/15 08:26:32;;;;;;;4.20;1.20;;;;;;;2.54;100.00;101467.52;103147;1288;60343;-76
2023/02/15 08:28:59;;;;;;;3.60;0.80;;;;;;;2.54;100.00;101464.30;103312;1286;73286;-76
2023/02/15 08:31:25;;;;;;;2.80;1.20;;;;;;;2.57;100.00;101468.53;103345;1291;73802;-76
2023/02/15 08:33:53;;;;;;;3.10;1.10;;;;;;;2.58;100.00;101473.59;103410;1289;60458;-76
2023/02/15 08:36:20;;;;;;;2.70;1.10;;;;;;;2.54;100.00;101472.23;103442;1286;62307;-76
2023/02/15 08:38:46;;;;;;;6.60;1.30;;;;;;;2.59;100.00;101473.93;103417;1289;60360;-77
2023/02/15 08:41:23;;;;;;;2.40;1.10;;;;;;;2.61;100.00;101474.61;103367;1286;60353;-76
2023/02/15 08:43:51;;;;;;;4.70;1.30;;;;;;;2.61;100.00;101477.72;103364;1291;73399;-76
2023/02/15 08:46:18;;;;;;;1.80;1.20;;;;;;;2.61;100.00;101480.47;103372;1286;73580;-76
2023/02/15 08:48:44;;;;;;;3.40;1.50;;;;;;;2.58;100.00;101481.29;103435;1285;61300;-76
2023/02/15 08:51:16;;;;;;;3.10;1.10;;;;;;;2.63;100.00;101483.16;103203;1292;60443;-77
2023/02/15 08:53:45;;;;;;;2.70;1.20;;;;;;;2.64;100.00;101486.48;103460;1292;74341;-76
2023/02/15 08:56:11;;;;;;;2.70;1.40;;;;;;;2.65;100.00;101482.61;103209;1290;72444;-76
2023/02/15 08:58:37;;;;;;;4.40;1.60;;;;;;;2.62;100.00;101482.08;103316;1291;60344;-76
2023/02/15 09:04:25;;;;;;;3.00;1.30;;;;;;;2.75;100.00;101478.96;103355;1286;60334;-76
2023/02/15 09:06:51;;;;;;;5.90;1.30;;;;;;;2.84;100.00;101473.33;103494;1292;60417;-76
2023/02/15 09:09:19;;;;;;;4.30;1.40;;;;;;;2.93;100.00;101470.32;103396;1290;60338;-75
2023/02/15 09:11:46;;;;;;;2.60;1.10;;;;;;;3.00;100.00;101469.97;103595;1289;60424;-76
2023/02/15 09:14:15;;;;;;;4.20;1.30;;;;;;;2.98;100.00;101470.91;103617;1290;62354;-76
2023/02/15 09:16:48;;;;;;;3.40;1.30;;;;;;;3.01;100.00;101464.73;103427;1286;60283;-77
2023/02/15 09:19:15;;;;;;;3.60;1.20;;;;;;;3.06;100.00;101464.77;103449;1289;73509;-76
2023/02/15 09:21:41;;;;;;;3.90;1.40;;;;;;;3.16;100.00;101463.57;103484;1286;74826;-76
2023/02/15 09:24:09;;;;;;;2.40;1.30;;;;;;;3.19;100.00;101460.86;103313;1285;60437;-77
2023/02/15 09:26:40;;;;;;;2.20;1.10;;;;;;;3.24;100.00;101462.83;106490;1286;58746;-77
2023/02/15 09:32:27;;;;;;;2.80;1.30;;;;;;;3.15;100.00;101463.89;106843;1285;71582;-76
2023/02/15 09:34:52;;;;;;;2.50;1.20;;;;;;;3.18;100.00;101463.52;106835;1285;58098;-76
2023/02/15 09:37:18;;;;;;;1.80;0.90;;;;;;;3.21;100.00;101471.16;106802;1285;58340;-75
2023/02/15 09:39:45;;;;;;;5.70;1.60;;;;;;;3.17;100.00;101466.33;106812;1285;58520;-76
2023/02/15 09:42:17;;;;;;;5.00;1.60;;;;;;;3.19;100.00;101468.73;106683;1286;57982;-75
2023/02/15 09:44:57;;;;;;;4.60;1.40;;;;;;;3.24;100.00;101472.61;106822;1285;72047;-76
2023/02/15 09:47:41;;;;;;;6.50;1.60;;;;;;;3.22;100.00;101473.55;106830;1285;74137;-76
2023/02/15 09:50:22;;;;;;;5.30;1.70;;;;;;;3.19;100.00;101470.08;106566;1286;73095;-76
2023/02/15 09:52:57;;;;;;;5.20;1.70;;;;;;;3.15;100.00;101470.03;106510;1288;60208;-77
2023/02/15 09:55:47;;;;;;;4.30;1.90;;;;;;;3.19;100.00;101470.29;106829;1285;61149;-76
2023/02/15 09:58:38;;;;;;;3.30;1.20;;;;;;;3.24;100.00;101472.59;106836;1285;74034;-77
2023/02/15 10:01:16;;;;;;;4.70;1.70;;;;;;;3.23;100.00;101476.55;106811;1285;73429;-77
2023/02/15 10:04:16;;;;;;;4.80;1.30;;;;;;;3.30;100.00;101477.45;106815;1285;73268;-77
2023/02/15 10:06:54;;;;;;;7.30;2.60;;;;;;;3.38;100.00;101477.02;106839;1285;60896;-77
2023/02/15 10:09:41;;;;;;;3.50;1.50;;;;;;;3.29;100.00;101472.02;106826;1285;61093;-78
2023/02/15 10:12:31;;;;;;;4.50;1.50;;;;;;;3.36;100.00;101471.94;106805;1285;72680;-77
2023/02/15 10:15:31;;;;;;;3.60;1.10;;;;;;;3.45;100.00;101472.63;106816;1285;74477;-77
2023/02/15 10:18:40;;;;;;;2.30;0.90;;;;;;;3.44;100.00;101468.14;106793;1285;73298;-77
2023/02/15 10:21:27;;;;;;;7.30;1.70;;;;;;;3.49;100.00;101475.65;106146;1291;60963;-77
2023/02/15 10:24:20;;;;;;;3.00;1.30;;;;;;;3.36;100.00;101476.35;106209;1291;60338;-77
2023/02/15 10:26:47;;;;;;;1.40;0.90;;;;;;;3.39;100.00;101482.65;106224;1291;73991;-77
2023/02/15 10:29:34;;;;;;;3.20;1.10;;;;;;;3.42;100.00;101485.42;106221;1291;74166;-77
2023/02/15 10:38:45;;;;;;;2.40;1.20;;;;;;;3.48;100.00;101484.01;106218;1291;59633;-77
2023/02/15 10:41:16;;;;;;;3.90;1.10;;;;;;;3.64;100.00;101489.56;106237;1291;73942;-77
2023/02/15 10:43:45;;;;;;;2.00;1.10;;;;;;;3.56;100.00;101485.06;106196;1291;74258;-77
2023/02/15 10:46:29;;;;;;;4.60;1.40;;;;;;;3.61;100.00;101487.48;106165;1291;71189;-77
2023/02/15 10:49:12;;;;;;;2.60;1.50;;;;;;;3.61;100.00;101486.59;106166;1291;60944;-77
2023/02/15 10:51:52;;;;;;;2.30;1.40;;;;;;;3.61;100.00;101489.20;106193;1291;60998;-77
2023/02/15 10:54:44;;;;;;;3.10;1.80;;;;;;;3.45;100.00;101485.75;106215;1291;73812;-77
2023/02/15 10:57:47;;;;;;;4.40;1.60;;;;;;;3.39;100.00;101492.89;106598;1285;73681;-77
2023/02/15 11:00:28;;;;;;;4.60;1.50;;;;;;;3.28;100.00;101490.04;106825;1285;72520;-77
2023/02/15 11:02:57;;;;;;;6.40;2.00;;;;;;;3.08;100.00;101488.60;106777;1286;61063;-77
2023/02/15 11:05:29;;;;;;;2.30;1.30;;;;;;;3.09;100.00;101487.59;106820;1285;60239;-77
2023/02/15 11:07:59;;;;;;;4.00;1.80;;;;;;;3.21;100.00;101486.37;106813;1285;72952;-77
2023/02/15 11:10:33;;;;;;;3.10;1.60;;;;;;;3.29;100.00;101489.86;106811;1285;72754;-77
2023/02/15 11:13:07;;;;;;;7.20;1.30;;;;;;;3.38;100.00;101485.19;106782;1285;71308;-77
2023/02/15 11:15:35;;;;;;;3.70;1.10;;;;;;;3.58;100.00;101482.58;106764;1285;61144;-77
2023/02/15 11:21:44;;;;;;;1.20;0.90;;;;;;;3.92;100.00;101492.86;106225;1291;71782;-78
2023/02/15 11:24:16;;;;;;;4.10;1.10;;;;;;;4.08;100.00;101489.78;106225;1291;74371;-77
2023/02/15 11:26:56;;;;;;;2.30;0.80;;;;;;;4.17;100.00;101493.05;106202;1291;73560;-78
2023/02/15 11:32:49;;;;;;;2.30;1.00;;;;;;;4.12;100.00;101494.91;106102;1294;59580;-77
2023/02/15 11:35:14;;;;;;;3.60;1.00;;;;;;;4.19;100.00;101497.16;106092;1294;73152;-77
2023/02/15 11:37:56;;;;;;;3.90;1.00;;;;;;;4.21;100.00;101497.52;106110;1293;58289;-78
2023/02/15 11:47:17;;;;;;;;;;;;;;;4.16;100.00;101504.98;106142;1294;59966;-77
2023/02/15 11:49:45;;;;;;;2.90;1.00;;;;;;;4.04;100.00;101502.71;106106;1293;58866;-77
2023/02/15 11:52:14;;;;;;;1.70;0.80;;;;;;;4.04;100.00;101505.64;106087;1293;73360;-77
2023/02/15 12:01:40;;;;;;;2.20;0.90;;;;;;;3.66;98.78;101513.53;106440;1288;60106;-77
2023/02/15 12:04:19;;;;;;;;;;;;;;;3.58;100.00;101522.02;106711;1285;74383;-77
2023/02/15 12:06:51;;;;;;;2.50;0.80;;;;;;;3.58;100.00;101521.91;106785;1285;73344;-77
2023/02/15 12:09:35;;;;;;;1.60;0.70;;;;;;;3.64;100.00;101525.12;106857;1285;72525;-77
2023/02/15 12:12:19;;;;;;;;;;;;;;;3.63;100.00;101525.80;106790;1285;61800;-77
2023/02/15 12:14:48;;;;;;;;;;;;;;;3.52;100.00;101529.64;106858;1285;60942;-77
2023/02/15 12:17:34;;;;;;;1.90;0.70;;;;;;;3.36;100.00;101527.40;106837;1285;73829;-77
2023/02/15 12:20:15;;;;;;;1.20;0.70;;;;;;;3.23;100.00;101532.20;106816;1285;73273;-77
2023/02/15 12:22:49;;;;;;;1.10;0.50;;;;;;;3.09;100.00;101537.41;106844;1285;72442;-78
2023/02/15 12:25:33;;;;;;;1.60;0.60;;;;;;;3.02;100.00;101538.83;106764;1285;60999;-77
2023/02/15 12:27:59;;;;;;;2.30;0.80;;;;;;;2.95;100.00;101542.52;106795;1285;61313;-76
2023/02/15 12:30:37;;;;;;;2.10;0.90;;;;;;;2.86;99.87;101540.80;106510;1286;58837;-77
2023/02/15 12:33:16;;;;;;;3.50;0.80;;;;;;;2.76;100.00;101537.77;106797;1285;73310;-77
2023/02/15 12:35:44;;;;;;;2.00;0.90;;;;;;;2.79;100.00;101545.39;106827;1285;73983;-77
2023/02/15 12:38:09;;;;;;;2.30;0.90;;;;;;;2.73;99.77;101542.36;106785;1285;61444;-77
2023/02/15 12:40:35;;;;;;;2.00;1.00;;;;;;;2.65;99.49;101544.27;106800;1285;58331;-76
2023/02/15 12:43:08;;;;;;;4.50;1.30;;;;;;;2.68;98.70;101545.70;106833;1285;58238;-77
2023/02/15 12:45:35;;;;;;;1.90;1.00;;;;;;;2.69;100.00;101547.42;106754;1285;73466;-77
2023/02/15 12:48:10;;;;;;;1.80;0.80;;;;;;;2.75;100.00;101549.21;106786;1285;73623;-77
2023/02/15 12:50:36;;;;;;;1.60;0.90;;;;;;;2.80;100.00;101553.62;106835;1285;61054;-77
2023/02/15 12:53:19;;;;;;;1.60;0.80;;;;;;;2.88;99.98;101555.71;106462;1286;58476;-78
2023/02/15 12:55:52;;;;;;;2.70;0.90;;;;;;;2.96;97.64;101556.77;106869;1285;74464;-77
2023/02/15 12:58:22;;;;;;;1.70;0.90;;;;;;;2.89;94.37;101558.27;106860;1285;74130;-77
2023/02/15 13:00:47;;;;;;;2.60;1.10;;;;;;;2.83;93.85;101555.88;106806;1285;73716;-76
2023/02/15 13:03:19;;;;;;;2.20;0.90;;;;;;;2.78;95.28;101559.86;106789;1285;58229;-77
2023/02/15 13:05:48;;;;;;;2.70;0.90;;;;;;;2.73;97.22;101559.30;106854;1285;60180;-77
2023/02/15 13:08:21;;;;;;;3.20;0.90;;;;;;;2.76;96.94;101568.08;106890;1285;74896;-76
2023/02/15 13:11:02;;;;;;;2.70;1.00;;;;;;;2.70;96.21;101566.44;106812;1285;74172;-77
2023/02/15 13:13:34;;;;;;;2.50;0.90;;;;;;;2.68;96.89;101574.10;106802;1285;72432;-76
2023/02/15 13:16:12;;;;;;;1.90;0.90;;;;;;;2.58;96.00;101576.92;106440;1286;59697;-77
2023/02/15 13:22:05;;;;;;;1.80;0.90;;;;;;;2.30;99.87;101585.37;106869;1285;73715;-77
2023/02/15 13:24:41;;;;;;;1.50;0.70;;;;;;;2.20;99.95;101585.49;106815;1285;73230;-77